createdAt,value
2023-03-16T00:04:21.622Z,23.13
2023-03-16T00:09:31.446Z,23.98
2023-03-16T00:14:36.115Z,28.65
2023-03-16T00:19:40.393Z,26.45
2023-03-16T00:24:45.996Z,28.67
2023-03-16T00:29:56.021Z,29.67
2023-03-16T00:35:02.058Z,18.95
2023-03-16T00:40:11.604Z,24.77
2023-03-16T00:45:16.055Z,29.50
2023-03-16T00:50:22.493Z,22.38
2023-03-16T00:55:28.656Z,29.93
2023-03-16T01:00:34.111Z,22.90
2023-03-16T01:05:43.587Z,30.65
2023-03-16T01:10:49.262Z,21.85
2023-03-16T01:20:58.070Z,25.00
2023-03-16T01:26:03.978Z,30.65
2023-03-16T01:31:10.675Z,25.50
2023-03-16T01:36:16.991Z,32.28
2023-03-16T01:41:35.891Z,30.95
2023-03-16T01:46:41.947Z,29.90
2023-03-16T01:51:51.707Z,26.55
2023-03-16T01:57:05.993Z,30.33
2023-03-16T02:02:12.636Z,31.55
2023-03-16T02:07:19.693Z,25.77
2023-03-16T02:12:26.051Z,25.98
2023-03-16T02:17:35.616Z,32.95
2023-03-16T02:22:47.508Z,35.45
2023-03-16T02:28:02.489Z,26.35
2023-03-16T02:33:11.174Z,31.90
2023-03-16T02:38:15.627Z,27.25
2023-03-16T02:43:30.010Z,23.45
2023-03-16T02:48:54.668Z,31.45
2023-03-16T02:53:58.880Z,35.00
2023-03-16T02:59:05.641Z,25.50
2023-03-16T03:04:11.599Z,28.60
2023-03-16T03:09:16.926Z,22.65
2023-03-16T03:14:21.476Z,32.05
2023-03-16T03:19:30.063Z,26.33
2023-03-16T03:24:35.074Z,38.70
2023-03-16T03:29:39.614Z,30.02
2023-03-16T03:34:45.284Z,27.48
2023-03-16T03:39:49.671Z,33.92
2023-03-16T03:44:54.900Z,25.40
2023-03-16T03:50:00.601Z,28.13
2023-03-16T03:55:05.987Z,26.45
2023-03-16T04:00:13.437Z,27.77
2023-03-16T04:05:19.266Z,33.22
2023-03-16T04:10:27.219Z,24.75
2023-03-16T04:15:33.069Z,30.05
2023-03-16T04:20:56.449Z,26.15
2023-03-16T04:26:03.947Z,26.08
2023-03-16T04:31:10.762Z,28.52
2023-03-16T04:36:24.187Z,30.30
2023-03-16T04:41:29.169Z,29.42
2023-03-16T04:46:44.809Z,29.33
2023-03-16T04:51:51.465Z,22.48
2023-03-16T04:56:57.930Z,21.90
2023-03-16T05:02:10.923Z,31.58
2023-03-16T05:07:17.273Z,26.93
2023-03-16T05:12:26.492Z,27.98
2023-03-16T05:17:36.828Z,28.77
2023-03-16T05:22:45.285Z,25.88
2023-03-16T05:27:55.291Z,21.77
2023-03-16T05:33:08.866Z,28.73
2023-03-16T05:38:15.994Z,32.10
2023-03-16T05:43:22.383Z,23.02
2023-03-16T05:48:29.229Z,22.20
2023-03-16T05:53:37.398Z,24.60
2023-03-16T05:58:49.037Z,24.95
2023-03-16T06:03:53.803Z,25.73
2023-03-16T06:09:03.887Z,25.25
2023-03-16T06:14:09.298Z,26.83
2023-03-16T06:19:14.334Z,27.38
2023-03-16T06:24:21.404Z,24.95
2023-03-16T06:29:25.869Z,27.80
2023-03-16T06:34:32.709Z,28.23
2023-03-16T06:39:42.830Z,28.88
2023-03-16T06:44:50.504Z,34.83
2023-03-16T06:50:01.868Z,26.10
2023-03-16T06:55:15.001Z,24.40
2023-03-16T07:00:26.434Z,32.10
2023-03-16T07:05:33.327Z,21.90
2023-03-16T07:10:42.908Z,25.38
2023-03-16T07:15:52.289Z,28.67
2023-03-16T07:21:00.604Z,19.88
2023-03-16T07:26:08.389Z,18.48
2023-03-16T07:31:16.765Z,13.00
2023-03-16T07:41:33.899Z,15.13
2023-03-16T07:47:08.150Z,20.13
2023-03-16T07:52:14.136Z,17.48
2023-03-16T07:57:21.424Z,18.05
2023-03-16T08:02:25.766Z,18.50
2023-03-16T08:07:32.094Z,18.25
2023-03-16T08:12:47.758Z,17.48
2023-03-16T08:17:59.313Z,17.40
2023-03-16T08:23:04.282Z,19.55
2023-03-16T08:28:17.159Z,18.08
2023-03-16T08:33:23.425Z,16.17
2023-03-16T08:38:29.401Z,20.23
2023-03-16T08:43:40.598Z,17.63
2023-03-16T08:53:52.960Z,13.60
2023-03-16T08:59:02.329Z,7.97
2023-03-16T09:04:06.865Z,7.78
2023-03-16T09:09:11.531Z,23.52
2023-03-16T09:14:18.993Z,7.35
2023-03-16T09:19:23.836Z,12.73
2023-03-16T09:24:28.171Z,6.87
2023-03-16T09:29:34.427Z,6.65
2023-03-16T09:34:39.523Z,11.98
2023-03-16T09:39:43.987Z,9.93
2023-03-16T09:45:00.557Z,7.55
2023-03-16T09:50:08.796Z,9.05
2023-03-16T09:55:24.808Z,10.07
2023-03-16T10:00:35.530Z,9.98
2023-03-16T10:05:40.961Z,31.05
2023-03-16T10:10:59.953Z,10.05
2023-03-16T10:16:19.733Z,9.30
2023-03-16T10:21:25.718Z,16.50
2023-03-16T10:26:38.041Z,8.07
2023-03-16T10:31:44.139Z,9.25
2023-03-16T10:36:49.196Z,8.40
2023-03-16T10:41:58.454Z,8.87
2023-03-16T10:47:06.972Z,9.73
2023-03-16T10:52:17.911Z,5.88
2023-03-16T10:57:25.642Z,9.38
2023-03-16T11:02:35.799Z,13.50
2023-03-16T11:07:40.557Z,14.38
2023-03-16T11:12:49.871Z,8.05
2023-03-16T11:17:56.426Z,8.00
2023-03-16T11:23:03.144Z,8.60
2023-03-16T11:28:17.085Z,7.28
2023-03-16T11:33:27.505Z,8.02
2023-03-16T11:38:37.828Z,20.80
2023-03-16T11:43:54.292Z,11.85
2023-03-16T11:49:24.713Z,6.65
2023-03-16T11:54:48.141Z,6.03
2023-03-16T12:00:20.745Z,8.18
2023-03-16T12:05:43.860Z,10.60
2023-03-16T12:10:57.071Z,4.75
2023-03-16T12:16:06.784Z,4.28
2023-03-16T12:21:17.334Z,10.32
2023-03-16T12:26:24.328Z,7.47
2023-03-16T12:31:38.776Z,5.80
2023-03-16T12:37:03.908Z,5.50
2023-03-16T12:42:23.570Z,4.22
2023-03-16T12:47:34.938Z,4.60
2023-03-16T12:52:46.274Z,4.72
2023-03-16T12:57:53.803Z,7.65
2023-03-16T13:02:59.908Z,3.92
2023-03-16T13:08:13.775Z,7.25
2023-03-16T13:13:19.026Z,5.05
2023-03-16T13:24:29.803Z,5.13
2023-03-16T13:29:37.730Z,5.15
2023-03-16T13:34:49.632Z,9.80
2023-03-16T13:40:04.987Z,5.43
2023-03-16T13:46:11.610Z,5.55
2023-03-16T13:57:07.568Z,12.07
2023-03-16T14:02:20.178Z,13.32
2023-03-16T14:07:26.537Z,7.13
2023-03-16T14:17:36.567Z,5.78
2023-03-16T14:22:41.110Z,10.07
2023-03-16T14:27:49.323Z,9.90
2023-03-16T14:33:01.381Z,5.85
2023-03-16T14:38:23.504Z,17.20
2023-03-16T14:43:38.706Z,7.95
2023-03-16T14:48:43.721Z,12.55
2023-03-16T14:53:50.314Z,9.85
2023-03-16T14:59:02.445Z,6.57
2023-03-16T15:04:13.887Z,6.53
2023-03-16T15:09:40.121Z,8.30
2023-03-16T15:15:04.388Z,11.55
2023-03-16T15:20:12.063Z,6.20
2023-03-16T15:25:27.081Z,13.38
2023-03-16T15:30:33.663Z,7.82
2023-03-16T15:35:40.323Z,10.10
2023-03-16T15:40:47.998Z,11.75
2023-03-16T15:46:00.008Z,8.57
2023-03-16T15:51:21.962Z,11.48
2023-03-16T15:56:30.309Z,7.82
2023-03-16T16:01:47.729Z,16.20
2023-03-16T16:06:55.514Z,16.90
2023-03-16T16:12:00.054Z,15.07
2023-03-16T16:17:09.743Z,15.10
2023-03-16T16:22:14.895Z,20.08
2023-03-16T16:27:26.988Z,16.83
2023-03-16T16:32:41.158Z,24.15
2023-03-16T16:37:51.858Z,19.25
2023-03-16T16:50:03.651Z,24.33
2023-03-16T16:56:04.150Z,25.88
2023-03-16T17:01:42.075Z,25.52
2023-03-16T17:06:56.824Z,22.88
2023-03-16T17:12:08.761Z,23.13
2023-03-16T17:17:22.482Z,30.20
2023-03-16T17:22:30.398Z,36.88
2023-03-16T17:27:35.114Z,33.80
2023-03-16T17:32:39.472Z,31.60
2023-03-16T17:37:47.439Z,29.90
2023-03-16T17:42:53.079Z,41.78
2023-03-16T17:48:15.299Z,42.97
2023-03-16T17:53:23.251Z,42.53
2023-03-16T17:58:31.481Z,44.22
2023-03-16T18:03:35.991Z,46.58
2023-03-16T18:08:41.714Z,39.75
2023-03-16T18:13:46.824Z,72.90
2023-03-16T18:18:52.856Z,121.80
2023-03-16T18:29:02.651Z,83.30
2023-03-16T18:34:07.933Z,130.65
2023-03-16T18:39:22.269Z,103.38
2023-03-16T18:44:27.625Z,127.30
2023-03-16T18:49:38.331Z,112.35
2023-03-16T18:54:45.885Z,83.57
2023-03-16T18:59:51.265Z,94.88
2023-03-16T19:04:57.517Z,92.63
2023-03-16T19:10:08.630Z,89.45
2023-03-16T19:15:19.891Z,185.88
2023-03-16T19:20:25.984Z,178.85
2023-03-16T19:25:36.190Z,115.40
2023-03-16T19:30:41.921Z,190.68
2023-03-16T19:35:51.799Z,118.72
2023-03-16T19:41:01.910Z,198.57
2023-03-16T19:46:06.584Z,148.32
2023-03-16T19:51:14.653Z,115.38
2023-03-16T19:56:22.061Z,138.52
2023-03-16T20:01:32.436Z,199.15
2023-03-16T20:06:37.048Z,173.23
2023-03-16T20:11:43.218Z,216.90
2023-03-16T20:21:52.725Z,344.73
2023-03-16T20:26:58.411Z,357.48
2023-03-16T20:32:03.742Z,143.80
2023-03-16T20:37:21.964Z,153.98
2023-03-16T20:42:32.237Z,154.55
2023-03-16T20:47:36.432Z,160.73
2023-03-16T20:52:40.633Z,113.15
2023-03-16T20:57:48.875Z,95.63
2023-03-16T21:02:53.520Z,133.43
2023-03-16T21:07:58.718Z,162.30
2023-03-16T21:13:04.285Z,198.32
2023-03-16T21:18:15.354Z,322.05
2023-03-16T21:23:21.904Z,176.55
2023-03-16T21:28:29.748Z,171.82
2023-03-16T21:33:38.760Z,190.20
2023-03-16T21:38:43.508Z,163.32
2023-03-16T21:43:50.108Z,181.75
2023-03-16T21:48:56.350Z,200.80
2023-03-16T21:54:01.756Z,192.18
2023-03-16T21:59:07.781Z,203.15
2023-03-16T22:04:17.477Z,200.85
2023-03-16T22:09:25.042Z,198.35
2023-03-16T22:14:30.677Z,198.90
2023-03-16T22:19:35.669Z,159.60
2023-03-16T22:24:40.231Z,142.20
2023-03-16T22:29:46.236Z,183.73
2023-03-16T22:34:56.316Z,188.07
2023-03-16T22:40:03.090Z,160.23
2023-03-16T22:45:19.093Z,153.73
2023-03-16T22:50:26.720Z,176.00
2023-03-16T22:55:34.004Z,399.05
2023-03-16T23:00:41.561Z,139.55
2023-03-16T23:05:47.625Z,157.10
2023-03-16T23:10:56.001Z,164.13
2023-03-16T23:16:01.735Z,153.82
2023-03-16T23:26:17.674Z,151.50
2023-03-16T23:31:26.019Z,154.07
2023-03-16T23:36:30.574Z,150.70
2023-03-16T23:41:35.647Z,170.73
2023-03-16T23:46:42.638Z,162.23
2023-03-16T23:51:47.938Z,136.77
2023-03-16T23:56:52.503Z,119.35
